createdAt,value
2022-08-30T09:01:19.596Z,75.80
2022-08-30T09:03:49.458Z,76.10
2022-08-30T09:06:54.077Z,75.30
2022-08-30T09:09:35.904Z,74.00
2022-08-30T09:12:05.452Z,72.90
2022-08-30T09:14:46.092Z,72.00
2022-08-30T09:17:21.784Z,70.40
2022-08-30T09:19:52.508Z,69.90
2022-08-30T09:22:31.633Z,69.00
2022-08-30T09:25:32.831Z,67.60
2022-08-30T09:28:13.901Z,67.70
2022-08-30T09:31:12.426Z,67.90
2022-08-30T09:33:40.539Z,68.80
2022-08-30T09:36:27.661Z,68.10
2022-08-30T09:39:14.133Z,68.90
2022-08-30T09:41:47.141Z,68.80
2022-08-30T09:44:23.576Z,68.90
2022-08-30T09:46:59.964Z,69.90
2022-08-30T09:49:42.294Z,69.30
2022-08-30T09:52:38.829Z,69.60
2022-08-30T09:55:37.018Z,69.80
2022-08-30T09:58:25.675Z,70.00
2022-08-30T10:01:27.966Z,70.00
2022-08-30T10:04:23.099Z,69.70
2022-08-30T10:06:58.992Z,69.80
2022-08-30T10:09:50.289Z,69.10
2022-08-30T10:12:27.841Z,69.40
2022-08-30T10:15:09.139Z,69.10
2022-08-30T10:17:58.493Z,69.00
2022-08-30T10:20:44.819Z,68.30
2022-08-30T10:23:44.204Z,68.90
2022-08-30T10:26:21.713Z,69.40
2022-08-30T10:28:59.007Z,69.50
2022-08-30T10:32:04.940Z,68.20
2022-08-30T10:34:40.319Z,68.30
2022-08-30T10:37:28.330Z,67.10
2022-08-30T10:40:29.034Z,66.20
2022-08-30T10:43:02.289Z,66.10
2022-08-30T10:45:39.157Z,65.50
2022-08-30T10:48:25.787Z,65.30
2022-08-30T10:50:59.435Z,64.90
2022-08-30T10:53:43.709Z,64.10
2022-08-30T10:56:20.587Z,63.60
2022-08-30T10:58:49.427Z,63.00
2022-08-30T11:01:36.665Z,61.90
2022-08-30T11:04:45.421Z,61.20
2022-08-30T11:07:45.110Z,57.70
2022-08-30T11:10:49.542Z,56.90
2022-08-30T11:13:45.528Z,54.20
2022-08-30T11:16:36.773Z,52.40
2022-08-30T11:19:45.171Z,53.10
2022-08-30T11:22:25.931Z,51.20
2022-08-30T11:25:11.970Z,50.40
2022-08-30T11:28:00.167Z,48.90
2022-08-30T11:30:28.540Z,48.70
2022-08-30T11:33:13.730Z,49.90
2022-08-30T11:35:52.883Z,50.80
2022-08-30T11:38:41.419Z,50.60
2022-08-30T11:41:45.590Z,50.30
2022-08-30T11:44:32.085Z,50.30
2022-08-30T11:47:05.042Z,50.20
2022-08-30T11:49:47.739Z,50.00
2022-08-30T11:52:56.398Z,49.90
2022-08-30T11:55:56.597Z,50.50
2022-08-30T11:58:51.015Z,50.20
2022-08-30T12:01:50.252Z,46.90
2022-08-30T12:04:17.199Z,44.60
2022-08-30T12:06:57.261Z,44.20
2022-08-30T12:09:25.838Z,43.40
2022-08-30T12:11:59.853Z,40.80
2022-08-30T12:14:52.864Z,40.90
2022-08-30T12:18:01.628Z,39.60
2022-08-30T12:20:44.854Z,38.70
2022-08-30T12:23:27.999Z,59.70
2022-08-30T12:26:26.280Z,62.60
2022-08-30T13:20:05.777Z,35.70
2022-08-30T13:23:07.071Z,36.70
2022-08-30T13:25:37.118Z,41.20
2022-08-30T13:28:07.855Z,39.00
2022-08-30T13:30:36.789Z,35.20
2022-08-30T13:33:04.558Z,32.70
2022-08-30T13:35:34.065Z,35.30
2022-08-30T13:38:03.055Z,34.00
2022-08-30T13:40:30.944Z,31.90
2022-08-30T13:42:58.977Z,33.10
2022-08-30T13:45:43.036Z,33.90
2022-08-30T13:48:12.102Z,34.00
2022-08-30T13:50:40.948Z,35.40
2022-08-30T13:53:12.158Z,35.40
2022-08-30T13:55:41.766Z,34.30
2022-08-30T13:58:14.830Z,35.80
2022-08-30T14:00:44.263Z,36.50
2022-08-30T14:03:13.754Z,36.80
2022-08-30T14:06:05.311Z,37.10
2022-08-30T14:08:49.366Z,38.40
2022-08-30T14:11:23.026Z,38.50
2022-08-30T14:16:44.977Z,38.80
2022-08-30T14:19:16.076Z,38.80
2022-08-30T14:21:49.026Z,39.90
2022-08-30T14:24:20.072Z,41.00
2022-08-30T14:26:51.651Z,39.20
2022-08-30T14:29:25.104Z,38.90
2022-08-30T14:31:55.266Z,38.90
2022-08-30T14:34:23.358Z,40.20
2022-08-30T14:36:51.166Z,40.80
2022-08-30T14:39:21.139Z,41.40
2022-08-30T14:41:54.400Z,40.30
2022-08-30T14:44:25.779Z,41.80
2022-08-30T14:46:54.551Z,41.10
2022-08-30T14:49:23.250Z,40.90
2022-08-30T14:51:52.610Z,41.00
2022-08-30T14:54:25.716Z,38.70
2022-08-30T14:56:54.883Z,36.60
2022-08-30T14:59:24.736Z,34.90
2022-08-30T15:01:53.562Z,34.70
2022-08-30T15:04:21.821Z,33.90
2022-08-30T15:06:50.973Z,33.40
2022-08-30T15:09:23.860Z,32.70
2022-08-30T15:11:59.856Z,32.30
2022-08-30T15:14:29.622Z,31.50
2022-08-30T15:19:27.080Z,31.70
2022-08-30T15:21:54.956Z,32.00
2022-08-30T15:24:27.608Z,32.50
2022-08-30T15:27:00.075Z,32.40
2022-08-30T15:29:30.543Z,32.60
2022-08-30T15:32:02.858Z,33.20
2022-08-30T15:34:32.133Z,34.70
2022-08-30T15:37:00.029Z,33.70
2022-08-30T15:39:27.597Z,35.40
2022-08-30T15:42:00.735Z,35.60
2022-08-30T15:44:31.509Z,36.60
2022-08-30T15:47:00.060Z,36.50
2022-08-30T15:49:28.729Z,37.10
2022-08-30T15:52:02.450Z,37.00
2022-08-30T15:54:31.254Z,37.10
2022-08-30T15:57:01.826Z,37.30
2022-08-30T15:59:30.998Z,38.70
2022-08-30T16:01:59.321Z,39.20
2022-08-30T16:04:33.029Z,39.00
2022-08-30T16:07:03.743Z,39.60
2022-08-30T16:09:32.891Z,40.30
2022-08-30T16:12:02.163Z,40.50
2022-08-30T16:14:29.804Z,40.90
2022-08-30T16:16:57.982Z,40.20
2022-08-30T16:19:26.876Z,40.90
2022-08-30T16:21:54.826Z,41.10
2022-08-30T16:24:23.561Z,40.70
2022-08-30T16:26:51.667Z,41.30
2022-08-30T16:29:19.889Z,41.20
2022-08-30T16:31:49.099Z,43.10
2022-08-30T16:34:20.114Z,40.80
2022-08-30T16:36:48.569Z,41.40
2022-08-30T16:39:16.384Z,42.20
2022-08-30T16:41:45.665Z,42.70
2022-08-30T16:44:15.993Z,43.50
2022-08-30T16:46:53.079Z,44.40
2022-08-30T16:49:24.870Z,44.80
2022-08-30T16:51:54.133Z,45.80
2022-08-30T16:54:23.067Z,46.50
